MT Misery

Sunday, August 9, 2015 08:00 (GMT+9:30) - Final results

Race info
Sport: Running - trail
Location: Greenacres, Australia
Start type: Interval wave start
Wave grouping: By distance
Distance: 24 Km
Racers: 118
Timed on: iPad
Timed with: Webscorer PRO 2.0
Updated: Tuesday, August 18, 2015 10:53 (GMT+9:30)
Organized by: Trail Running SA
Race website: http://www.trailrunningsa.com

Contact organizer

Use this form to send an email to the organizer.

Your name
Your email address
Confirm email address
Message to organizer
Send

Place Bib Racer name Category Age Gender Finish time
1299McCabe, MattM-30-3432M 2:08:02.4--100%34.18%31.89%5:20.1
2321Funk, KierenM-19-2421M 2:10:07.5+2:05.1+1.63%98.40%33.11%30.78%5:25.3
3296Hockings, BenM-35-3937M 2:11:24.0+3:21.6+2.62%97.44%32.45%30.10%5:28.5
4291Kromkamp, AdamM-35-3938M 2:15:13.4+7:11.0+5.61%94.69%30.49%28.06%5:38.1
5193Varney, MichaelM-40-4444M 2:22:21.1+14:18.7+11.18%89.95%26.82%24.27%5:55.9
699Knowler, JamesM-40-4440M 2:25:55.7+17:53.3+13.97%87.74%24.99%22.37%6:04.8
7223Pattison, ClintM-40-4443M 2:28:13.1+20:10.7+15.76%86.39%23.81%21.15%6:10.5
8284Searle, DanM-30-3433M 2:28:42.1+20:39.7+16.14%86.11%23.56%20.89%6:11.8
9318Tooth, BlakeM-30-3432M 2:28:47.3+20:44.9+16.20%86.06%23.52%20.85%6:12.0
10157Ton, ShaunM-25-2927M 2:29:27.3+21:24.9+16.73%85.67%23.17%20.49%6:13.6
11136Kuwata, KazuF-35-3936F 2:29:50.8+21:48.4+17.03%85.45%22.97%20.29%6:14.6
12281Morfey, ShaunM-30-3434M 2:30:03.3+22:00.9+17.19%85.33%22.86%20.17%6:15.1
13288Cardwell, JoshM-19-2424M 2:30:56.8+22:54.4+17.89%84.82%22.41%19.70%6:17.4
14300Mills, ChrisM-30-3432M 2:31:22.8+23:20.4+18.23%84.58%22.18%19.47%6:18.4
1544Teale, HayleyF-35-3937F 2:32:03.2+24:00.8+18.75%84.21%21.84%19.11%6:20.1
16152Sykes, CliffM-45-4948M 2:32:39.1+24:36.7+19.22%83.88%21.53%18.79%6:21.6
17176How, TravisM-40-4440M 2:34:36.0+26:33.6+20.74%82.82%20.53%17.76%6:26.5
18266Carton, TimM-25-2925M 2:36:01.7+27:59.3+21.86%82.06%19.79%17.00%6:30.1
19251Flower, CliffM-45-4949M 2:36:37.8+28:35.4+22.33%81.75%19.48%16.68%6:31.6
20302Stokes, PeteM-35-3939M 2:38:11.0+30:08.6+23.54%80.94%18.69%15.85%6:35.5
2125Young, BronwynF-35-3938F 2:38:22.1+30:19.7+23.69%80.85%18.59%15.75%6:35.9
22323Kelly, GregM-50-5450M 2:40:12.3+32:09.9+25.12%79.92%17.65%14.78%6:40.5
23166Greeneklee, StirlingM-55-5957M 2:40:20.3+32:17.9+25.23%79.86%17.58%14.70%6:40.8
24175McLean, GaryM-50-5452M 2:41:08.0+33:05.6+25.85%79.46%17.17%14.28%6:42.8
25303Bang, RyanM-35-3937M 2:42:30.7+34:28.3+26.92%78.79%16.46%13.55%6:46.3
26320Hunt, GlenM-35-3937M 2:42:52.5+34:50.1+27.21%78.61%16.27%13.35%6:47.2
27254Kniter, CraigM-40-4443M 2:43:38.6+35:36.2+27.81%78.24%15.88%12.95%6:49.1
28184Kelly, StevenM-40-4443M 2:43:53.2+35:50.8+28.00%78.13%15.75%12.82%6:49.7
29221LeMire, DavidM-40-4444M 2:44:04.0+36:01.6+28.14%78.04%15.66%12.72%6:50.2
30265Carrey, ChrisM-35-3936M 2:44:36.0+36:33.6+28.55%77.79%15.39%12.44%6:51.5
31276Golding, KirkM-40-4443M 2:45:00.9+36:58.5+28.88%77.59%15.17%12.22%6:52.5
32271Howat, RobertM-40-4440M 2:45:45.7+37:43.3+29.46%77.24%14.79%11.82%6:54.4
33322Funk, BraydenM-Junior16M 2:45:58.8+37:56.4+29.63%77.14%14.68%11.70%6:55.0
34289Bang, JordanM-30-3431M 2:51:22.9+43:20.5+33.85%74.71%11.90%8.83%7:08.5
35149Colebatch, ErinF-30-3432F 2:51:28.0+43:25.6+33.92%74.67%11.86%8.78%7:08.7
36315Kenward, TobyM-25-2927M 2:53:33.2+45:30.8+35.55%73.78%10.79%7.67%7:13.9
37256Gohl, MatthewM-40-4443M 2:55:28.0+47:25.6+37.04%72.97%9.80%6.66%7:18.7
3839Miller, JonathanM-50-5450M 2:55:30.0+47:27.6+37.07%72.96%9.78%6.64%7:18.8
39156Mitchell, JamieM-40-4441M 3:00:34.5+52:32.1+41.03%70.91%7.18%3.94%7:31.4
40274Benny, AngelaF-40-4441F 3:01:28.4+53:26.0+41.73%70.56%6.71%3.46%7:33.7
41259Pascoe, KarinaF-30-3433F 3:01:59.2+53:56.8+42.13%70.36%6.45%3.19%7:35.0
42143Temple, NiallM-40-4442M 3:04:03.4+56:01.0+43.75%69.57%5.39%2.09%7:40.1
43164Munzberg, EmmaF-45-4945F 3:04:07.5+56:05.1+43.80%69.54%5.35%2.05%7:40.3
4493Dueholm, BjornM-30-3431M 3:04:26.3+56:23.9+44.05%69.42%5.19%1.88%7:41.1
45316Martin, AndrewM-25-2928M 3:04:44.2+56:41.8+44.28%69.31%5.04%1.72%7:41.8
46293Dixon, GeraldineF-45-4946F 3:05:03.9+57:01.5+44.54%69.19%4.87%1.55%7:42.7
47301Fuller, JamesM-30-3433M 3:05:05.3+57:02.9+44.56%69.18%4.86%1.54%7:42.7
48311Lutze, GavinM-50-5453M 3:05:58.2+57:55.8+45.24%68.85%4.40%1.07%7:44.9
49312Wadewitz, AdamM-35-3938M 3:06:17.2+58:14.8+45.49%68.73%4.24%0.90%7:45.7
50263Hayes, AmandaF-40-4444F 3:06:30.0+58:27.6+45.66%68.65%4.13%0.79%7:46.2
51264Rigby, DarrinM-40-4440M 3:06:44.0+58:41.6+45.84%68.57%4.01%0.66%7:46.8
52260Kennedy, TraceyF-45-4948F 3:07:39.0+59:36.6+46.56%68.23%3.54%0.18%7:49.1
53107Roberts, AdamM-45-4948M 3:07:47.8+59:45.4+46.67%68.18%3.46%0.10%7:49.5
54238Gwynn-Jones, BronwenF-45-4946F 3:07:53.0+59:50.6+46.74%68.15%3.42%0.05%7:49.7
55135Tottey, GrahamM-45-4946M 3:08:04.5+1:00:02.1+46.89%68.08%3.32%-0.05%7:50.2
56310Lutze, JenniferF-55-5955F 3:08:50.3+1:00:47.9+47.48%67.80%2.93%-0.46%7:52.1
57147Russell, SonjaF-25-2927F 3:09:15.9+1:01:13.5+47.82%67.65%2.71%-0.68%7:53.2
5878Mceachern, SarahF-30-3432F 3:09:16.4+1:01:14.0+47.82%67.65%2.70%-0.69%7:53.2
59262Standish, NicoleF-40-4440F 3:10:01.9+1:01:59.5+48.42%67.38%2.31%-1.09%7:55.1
60119Vasey, BrentonM-40-4441M 3:10:03.7+1:02:01.3+48.44%67.37%2.30%-1.11%7:55.2
61225Richards, JedM-40-4444M 3:15:04.0+1:07:01.6+52.35%65.64%-0.27%-3.77%8:07.7
62228Dall, DavidM-35-3939M 3:15:04.6+1:07:02.2+52.36%65.64%-0.28%-3.78%8:07.7
63194Stevens, AdamM-40-4441M 3:16:10.9+1:08:08.5+53.22%65.27%-0.85%-4.36%8:10.5
64247Smith, ChrisM-45-4945M 3:17:17.0+1:09:14.6+54.08%64.90%-1.41%-4.95%8:13.2
6540Kent, StephanM-55-5959M 3:17:18.5+1:09:16.1+54.10%64.89%-1.43%-4.96%8:13.3
66313Rugless, PaulM-60-6966M 3:17:29.1+1:09:26.7+54.24%64.84%-1.52%-5.06%8:13.7
67277Murphy, SarahF-40-4440F 3:18:09.3+1:10:06.9+54.76%64.62%-1.86%-5.41%8:15.4
6898Warne, GeoffM-50-5450M 3:18:55.4+1:10:53.0+55.36%64.37%-2.26%-5.82%8:17.3
69105Meyers, LukeM-35-3935M 3:19:47.9+1:11:45.5+56.04%64.08%-2.71%-6.29%8:19.5
70270Biggs, CraigM-35-3938M 3:20:51.2+1:12:48.8+56.87%63.75%-3.25%-6.85%8:22.1
71308Sabine, BeckF-40-4440F 3:21:35.2+1:13:32.8+57.44%63.52%-3.62%-7.24%8:24.0
72121Schubert, GuyM-60-6964M 3:23:07.5+1:15:05.1+58.64%63.04%-4.42%-8.06%8:27.8
7332Fitzgerald, AdamM-35-3936M 3:23:20.9+1:15:18.5+58.82%62.97%-4.53%-8.18%8:28.4
741333Goodrich, GeorginaF-40-4444F 3:24:26.8+1:16:24.4+59.67%62.63%-5.10%-8.76%8:31.1
75155Crawford, JustineF-40-4442F 3:25:54.1+1:17:51.7+60.81%62.19%-5.84%-9.53%8:34.8
75324Morrison, KendallF-30-3430F 3:25:54.1+1:17:51.7+60.81%62.19%-5.84%-9.53%8:34.8
7789Hughes, DianeF-55-5955F 3:27:41.8+1:19:39.4+62.21%61.65%-6.77%-10.49%8:39.2
78283Braddon, MarkM-50-5451M 3:28:55.5+1:20:53.1+63.17%61.29%-7.40%-11.14%8:42.3
79226Bazley, NathanM-30-3430M 3:30:44.6+1:22:42.2+64.59%60.76%-8.33%-12.11%8:46.9
80278Marshall, RichardM-35-3939M 3:30:47.5+1:22:45.1+64.63%60.74%-8.36%-12.14%8:47.0
81280MacIntosh, EmmaF-19-2420F 3:31:43.0+1:23:40.6+65.35%60.48%-8.83%-12.63%8:49.3
82272Hill, IanM-60-6961M 3:31:45.6+1:23:43.2+65.39%60.46%-8.85%-12.65%8:49.4
83285Zanker, LianaF-35-3938F 3:32:50.1+1:24:47.7+66.23%60.16%-9.41%-13.22%8:52.1
845Harrihill, DavidM-45-4949M 3:39:01.3+1:30:58.9+71.06%58.46%-12.59%-16.51%9:07.6
8519Pantelic, NatalijaF-35-3936F 3:39:09.8+1:31:07.4+71.17%58.42%-12.66%-16.59%9:07.9
86309Kaneko, ChrisF-40-4444F 3:40:07.8+1:32:05.4+71.92%58.17%-13.16%-17.10%9:10.3
87273Wild, LauriF-50-5451F 3:40:42.5+1:32:40.1+72.37%58.01%-13.45%-17.41%9:11.8
88255Lycos, KimonM-45-4945M 3:43:24.0+1:35:21.6+74.48%57.31%-14.84%-18.84%9:18.5
89234Junblat, ZiadM-45-4948M 3:43:26.6+1:35:24.2+74.51%57.30%-14.86%-18.87%9:18.6
90279Mumford, RebeccaF-40-4440F 3:45:32.4+1:37:30.0+76.15%56.77%-15.94%-19.98%9:23.8
91275Hart, FionaF-40-4440F 3:45:59.5+1:37:57.1+76.50%56.66%-16.17%-20.22%9:25.0
92168Greeneklee, JenF-50-5454F 3:46:01.6+1:37:59.2+76.53%56.65%-16.19%-20.24%9:25.1
93192Quinn, Anne-MarieF-40-4444F 3:48:50.8+1:40:48.4+78.73%55.95%-17.64%-21.74%9:32.1
94218Stubing, ToniF-50-5452F 3:50:07.7+1:42:05.3+79.73%55.64%-18.30%-22.42%9:35.3
95161Richardson Burgess, SueF-40-4441F 3:54:54.7+1:46:52.3+83.47%54.51%-20.76%-24.97%9:47.3
96325Matijevic, BelindaF-40-4443F 3:55:02.6+1:47:00.2+83.57%54.48%-20.82%-25.04%9:47.6
9752Thompson, LouiseF-40-4443F 3:56:20.7+1:48:18.3+84.59%54.18%-21.49%-25.73%9:50.9
98269Taipari, RebeccaF-30-3434F 4:17:01.4+2:08:59.0+100.74%49.82%-32.12%-36.73%10:42.6
98295Mere, KatieF-25-2928F 4:17:01.4+2:08:59.0+100.74%49.82%-32.12%-36.73%10:42.6
98297McCue, JennaF-25-2927F 4:17:01.4+2:08:59.0+100.74%49.82%-32.12%-36.73%10:42.6
101132Fotheringham, MichaelM-40-4443M 4:18:48.9+2:10:46.5+102.14%49.47%-33.04%-37.68%10:47.0
102307Wishart, KarenF-45-4947F 4:29:59.8+2:21:57.4+110.87%47.42%-38.79%-43.63%11:15.0
10355Hanlin, MichelleF-40-4444F 5:01:00.0+2:52:57.6+135.08%42.54%-54.73%-60.12%12:32.5
103282Krieg, KellyF-30-3434F 5:01:00.0+2:52:57.6+135.08%42.54%-54.73%-60.12%12:32.5
103290Voigt, CassieF-30-3433F 5:01:00.0+2:52:57.6+135.08%42.54%-54.73%-60.12%12:32.5
103292Mount, PhilM-60-6969M 5:01:00.0+2:52:57.6+135.08%42.54%-54.73%-60.12%12:32.5
107305Tiggemann, MarnieF-45-4946F 5:20:00.0+3:11:57.6+149.92%40.01%-64.49%-70.23%13:20.0
107306Almond, NatalieF-45-4949F 5:20:00.0+3:11:57.6+149.92%40.01%-64.49%-70.23%13:20.0
-286Chambers, AmyF-25-2925F DNF------
-314Demczuk, DavidM-35-3936M DNF------
-317Pearson, SimonM-30-3432M DNF------
-319Balfour, BelindaF-55-5956F DNF------
-7Chandler, NariF-35-3939F DSQ------
-31Dixon, MarkM-40-4443M DSQ------
-179Taylor, ClaireF-40-4440F DSQ------
-220Bourner, TimM-40-4442M DSQ------
-257Jensen, KristaF-25-2928F DSQ------
-267Fedele, KerryF-35-3937F DSQ------